Time;durP1;ratioP1;P1;durP2;ratioP2;P2;SDS_P1;SDS_P2;PMS_P1;PMS_P2;Temp;Humidity;BMP_temperature;BMP_pressure;BME280_temperature;BME280_humidity;BME280_pressure;Samples;Min_cycle;Max_cycle;Signal;HPM_P1;HPM_P2
2022/02/25 00:02:13;;;;;;;3.78;2.22;;;;;;;;;;5050629;28;20550;-55
2022/02/25 00:04:39;;;;;;;3.88;2.40;;;;;;;;;;5050788;28;20025;-52
2022/02/25 00:07:05;;;;;;;3.60;2.10;;;;;;;;;;5051019;28;20029;-53
2022/02/25 00:09:31;;;;;;;4.63;3.00;;;;;;;;;;5050367;28;20444;-55
2022/02/25 00:11:57;;;;;;;3.40;2.00;;;;;;;;;;5050849;28;20473;-52
2022/02/25 00:14:23;;;;;;;4.25;2.63;;;;;;;;;;5050478;28;20041;-55
2022/02/25 00:16:49;;;;;;;3.63;2.15;;;;;;;;;;5050328;28;20460;-55
2022/02/25 00:19:15;;;;;;;4.00;2.40;;;;;;;;;;5050118;28;20115;-55
2022/02/25 00:21:42;;;;;;;3.50;2.10;;;;;;;;;;5049333;28;20047;-53
2022/02/25 00:24:09;;;;;;;3.70;2.20;;;;;;;;;;5056737;28;20029;-54
2022/02/25 00:26:36;;;;;;;3.30;1.98;;;;;;;;;;5063604;28;20069;-54
2022/02/25 00:29:02;;;;;;;3.38;2.00;;;;;;;;;;5059827;28;20033;-52
2022/02/25 00:31:28;;;;;;;3.30;2.00;;;;;;;;;;5056333;28;20053;-53
2022/02/25 00:33:54;;;;;;;3.30;2.00;;;;;;;;;;5050685;28;20048;-57
2022/02/25 00:36:20;;;;;;;3.60;2.20;;;;;;;;;;5052425;28;20459;-54
2022/02/25 00:38:46;;;;;;;3.50;2.10;;;;;;;;;;5084002;23;20093;-47
2022/02/25 00:41:12;;;;;;;3.50;2.10;;;;;;;;;;5094291;28;20464;-50
2022/02/25 00:43:38;;;;;;;3.58;2.10;;;;;;;;;;5076518;28;20369;-50
2022/02/25 00:46:04;;;;;;;3.28;1.95;;;;;;;;;;5076327;28;20114;-53
2022/02/25 00:48:30;;;;;;;4.20;2.38;;;;;;;;;;5076670;28;20028;-53
2022/02/25 00:50:56;;;;;;;3.45;2.08;;;;;;;;;;5076377;28;20020;-52
2022/02/25 00:53:22;;;;;;;3.50;2.10;;;;;;;;;;5076241;28;20527;-53
2022/02/25 00:55:48;;;;;;;3.60;2.20;;;;;;;;;;5094485;28;20023;-52
2022/02/25 00:58:14;;;;;;;3.53;2.10;;;;;;;;;;5094503;28;20381;-51
2022/02/25 01:00:40;;;;;;;3.45;2.10;;;;;;;;;;5076430;28;20024;-54
2022/02/25 01:03:06;;;;;;;3.88;2.30;;;;;;;;;;5094355;28;20060;-56
2022/02/25 01:05:33;;;;;;;3.60;2.20;;;;;;;;;;5076083;28;20020;-47
2022/02/25 01:08:03;;;;;;;3.45;2.10;;;;;;;;;;5094017;28;20074;-53
2022/02/25 01:10:29;;;;;;;3.40;2.00;;;;;;;;;;5094021;28;20373;-52
2022/02/25 01:12:55;;;;;;;3.40;2.00;;;;;;;;;;5094268;28;20073;-52
2022/02/25 01:15:21;;;;;;;3.25;2.00;;;;;;;;;;5075913;28;20020;-49
2022/02/25 01:17:46;;;;;;;3.30;1.90;;;;;;;;;;5094029;28;20020;-51
2022/02/25 01:20:13;;;;;;;3.13;1.90;;;;;;;;;;5093822;28;20031;-53
2022/02/25 01:22:39;;;;;;;3.80;2.20;;;;;;;;;;5093787;28;20023;-49
2022/02/25 01:25:05;;;;;;;3.40;2.00;;;;;;;;;;5093869;28;20028;-51
2022/02/25 01:27:31;;;;;;;4.47;2.85;;;;;;;;;;5093833;28;20032;-55
2022/02/25 01:29:58;;;;;;;4.18;2.45;;;;;;;;;;5093514;28;20028;-51
2022/02/25 01:32:24;;;;;;;3.20;1.90;;;;;;;;;;5075598;28;20028;-52
2022/02/25 01:34:50;;;;;;;3.38;2.00;;;;;;;;;;5093813;28;20016;-55
2022/02/25 01:37:17;;;;;;;3.40;2.03;;;;;;;;;;5093863;28;20467;-48
2022/02/25 01:39:43;;;;;;;3.60;2.17;;;;;;;;;;5075084;28;20060;-51
2022/02/25 01:42:09;;;;;;;3.13;1.90;;;;;;;;;;5093421;28;20027;-49
2022/02/25 01:44:39;;;;;;;3.00;1.80;;;;;;;;;;5093371;28;20535;-50
2022/02/25 01:47:06;;;;;;;3.17;1.90;;;;;;;;;;5093187;28;20039;-50
2022/02/25 01:49:32;;;;;;;3.20;1.98;;;;;;;;;;5093089;28;20094;-50
2022/02/25 01:52:03;;;;;;;3.42;2.05;;;;;;;;;;5075178;28;20024;-53
2022/02/25 01:54:30;;;;;;;3.85;2.42;;;;;;;;;;5075175;28;20024;-52
2022/02/25 01:56:57;;;;;;;3.30;2.00;;;;;;;;;;5093416;28;20078;-50
2022/02/25 01:59:23;;;;;;;3.30;2.00;;;;;;;;;;5093034;28;20024;-49
2022/02/25 02:01:49;;;;;;;3.28;1.95;;;;;;;;;;5074988;28;20024;-50
2022/02/25 02:04:15;;;;;;;3.30;2.00;;;;;;;;;;5092984;28;20020;-54
2022/02/25 02:06:41;;;;;;;3.13;1.90;;;;;;;;;;5093249;28;20438;-50
2022/02/25 02:09:08;;;;;;;3.30;2.00;;;;;;;;;;5074820;28;20122;-53
2022/02/25 02:11:39;;;;;;;3.10;1.90;;;;;;;;;;5074857;28;20504;-52
2022/02/25 02:14:07;;;;;;;3.40;2.03;;;;;;;;;;5092801;28;20493;-54
2022/02/25 02:16:33;;;;;;;3.40;2.00;;;;;;;;;;5074946;28;20032;-50
2022/02/25 02:18:59;;;;;;;3.40;2.00;;;;;;;;;;5073896;28;20043;-48
2022/02/25 02:21:26;;;;;;;3.60;2.10;;;;;;;;;;5074715;28;20028;-51
2022/02/25 02:23:53;;;;;;;3.40;2.00;;;;;;;;;;5074661;28;20455;-50
2022/02/25 02:26:19;;;;;;;3.60;2.10;;;;;;;;;;5092794;28;20020;-53
2022/02/25 02:28:45;;;;;;;3.40;2.00;;;;;;;;;;5074690;28;20070;-50
2022/02/25 02:31:11;;;;;;;3.42;2.00;;;;;;;;;;5092874;28;20492;-48
2022/02/25 02:33:37;;;;;;;3.40;2.00;;;;;;;;;;5092946;28;20099;-49
2022/02/25 02:36:04;;;;;;;3.40;2.00;;;;;;;;;;5092571;28;20031;-50
2022/02/25 02:38:30;;;;;;;4.10;2.38;;;;;;;;;;5092672;28;20031;-49
2022/02/25 02:40:56;;;;;;;3.40;2.00;;;;;;;;;;5092623;28;20441;-51
2022/02/25 02:43:22;;;;;;;3.50;2.10;;;;;;;;;;5092807;28;20020;-53
2022/02/25 02:45:48;;;;;;;3.70;2.20;;;;;;;;;;5092855;28;20016;-53
2022/02/25 02:48:15;;;;;;;3.40;2.10;;;;;;;;;;5093498;28;20407;-51
2022/02/25 02:50:41;;;;;;;3.40;2.10;;;;;;;;;;5093343;28;20039;-54
2022/02/25 02:53:07;;;;;;;3.30;2.00;;;;;;;;;;5093412;28;20028;-53
2022/02/25 02:55:34;;;;;;;3.42;2.08;;;;;;;;;;5092533;28;20017;-50
2022/02/25 02:58:00;;;;;;;4.28;2.65;;;;;;;;;;5092181;28;20032;-50
2022/02/25 03:00:26;;;;;;;3.20;1.90;;;;;;;;;;5074093;28;20024;-53
2022/02/25 03:02:52;;;;;;;3.00;1.80;;;;;;;;;;5092153;28;20028;-49
2022/02/25 03:05:19;;;;;;;3.30;1.98;;;;;;;;;;5074174;28;20089;-51
2022/02/25 03:07:46;;;;;;;3.20;1.92;;;;;;;;;;5074033;28;20020;-51
2022/02/25 03:10:12;;;;;;;3.78;2.25;;;;;;;;;;5091939;28;20028;-51
2022/02/25 03:12:39;;;;;;;3.28;2.00;;;;;;;;;;5092419;28;20040;-51
2022/02/25 03:15:05;;;;;;;4.15;2.42;;;;;;;;;;5073679;28;20024;-49
2022/02/25 03:17:32;;;;;;;3.70;2.20;;;;;;;;;;5092696;28;20031;-48
2022/02/25 03:19:59;;;;;;;3.50;2.10;;;;;;;;;;5092414;28;20058;-51
2022/02/25 03:22:25;;;;;;;4.55;2.50;;;;;;;;;;5092721;28;20095;-52
2022/02/25 03:24:55;;;;;;;3.60;2.10;;;;;;;;;;5074098;28;20458;-53
2022/02/25 03:27:21;;;;;;;4.07;2.38;;;;;;;;;;5092028;28;20551;-52
2022/02/25 03:29:47;;;;;;;3.60;2.20;;;;;;;;;;5092117;28;20066;-53
2022/02/25 03:32:13;;;;;;;3.50;2.10;;;;;;;;;;5098892;28;20109;-54
2022/02/25 03:34:39;;;;;;;4.80;3.58;;;;;;;;;;5097923;28;20024;-53
2022/02/25 03:37:06;;;;;;;3.72;2.20;;;;;;;;;;5096806;28;20154;-53
2022/02/25 03:39:32;;;;;;;3.67;2.20;;;;;;;;;;5096151;28;20077;-51
2022/02/25 03:41:58;;;;;;;4.15;2.90;;;;;;;;;;5078468;28;20067;-52
2022/02/25 03:44:24;;;;;;;3.40;2.00;;;;;;;;;;5096581;28;20032;-49
2022/02/25 03:46:50;;;;;;;3.80;2.20;;;;;;;;;;5096833;28;20016;-48
2022/02/25 03:49:16;;;;;;;3.45;2.05;;;;;;;;;;5096007;28;20036;-49
2022/02/25 03:51:42;;;;;;;4.15;2.55;;;;;;;;;;5095817;28;20051;-52
2022/02/25 03:54:08;;;;;;;3.80;2.20;;;;;;;;;;5078061;28;20462;-55
2022/02/25 03:56:34;;;;;;;3.70;2.20;;;;;;;;;;5095845;28;20064;-53
2022/02/25 03:59:00;;;;;;;3.50;2.05;;;;;;;;;;5077275;28;20071;-48
2022/02/25 04:01:26;;;;;;;3.40;2.08;;;;;;;;;;5077497;28;20072;-51
2022/02/25 04:03:53;;;;;;;4.40;2.88;;;;;;;;;;5095340;28;20024;-50
2022/02/25 04:06:19;;;;;;;4.88;2.85;;;;;;;;;;5077930;28;20020;-50
2022/02/25 04:08:45;;;;;;;3.47;2.03;;;;;;;;;;5096185;28;20401;-51
2022/02/25 04:11:11;;;;;;;4.97;2.75;;;;;;;;;;5095976;28;20028;-56
2022/02/25 04:13:38;;;;;;;3.92;2.40;;;;;;;;;;5095671;28;20024;-54
2022/02/25 04:16:04;;;;;;;3.90;2.30;;;;;;;;;;5077137;28;20062;-52
2022/02/25 04:18:30;;;;;;;3.85;2.28;;;;;;;;;;5095351;28;20372;-52
2022/02/25 04:20:56;;;;;;;4.00;2.40;;;;;;;;;;5076936;28;20472;-53
2022/02/25 04:23:22;;;;;;;4.00;2.40;;;;;;;;;;5077509;28;20115;-52
2022/02/25 04:25:48;;;;;;;3.60;2.20;;;;;;;;;;5095432;28;20050;-51
2022/02/25 04:28:14;;;;;;;3.97;2.38;;;;;;;;;;5095127;28;20032;-52
2022/02/25 04:30:41;;;;;;;3.90;2.40;;;;;;;;;;5094766;28;20050;-50
2022/02/25 04:33:07;;;;;;;5.45;2.85;;;;;;;;;;5094916;28;20016;-51
2022/02/25 04:35:33;;;;;;;3.70;2.20;;;;;;;;;;5076428;28;20024;-50
2022/02/25 04:37:59;;;;;;;3.70;2.22;;;;;;;;;;5094742;28;20020;-53
2022/02/25 04:40:25;;;;;;;3.90;2.40;;;;;;;;;;5076414;28;20028;-52
2022/02/25 04:42:51;;;;;;;3.90;2.40;;;;;;;;;;5094119;28;20027;-53
2022/02/25 04:45:17;;;;;;;4.00;2.40;;;;;;;;;;5094882;28;20020;-51
2022/02/25 04:47:43;;;;;;;4.05;2.40;;;;;;;;;;5094642;28;20024;-53
2022/02/25 04:50:10;;;;;;;3.90;2.40;;;;;;;;;;5094638;28;20069;-52
2022/02/25 04:52:37;;;;;;;4.22;2.50;;;;;;;;;;5094490;28;20024;-53
2022/02/25 04:55:03;;;;;;;4.20;2.50;;;;;;;;;;5094496;28;20107;-52
2022/02/25 04:57:29;;;;;;;3.90;2.40;;;;;;;;;;5094680;28;20446;-53
2022/02/25 04:59:55;;;;;;;3.88;2.30;;;;;;;;;;5094371;28;20021;-52
2022/02/25 05:02:21;;;;;;;4.00;2.35;;;;;;;;;;5094180;28;20028;-53
2022/02/25 05:04:47;;;;;;;3.65;2.20;;;;;;;;;;5094222;28;20062;-56
2022/02/25 05:07:13;;;;;;;4.00;2.40;;;;;;;;;;5094308;28;20016;-55
2022/02/25 05:09:39;;;;;;;5.82;2.88;;;;;;;;;;5093939;28;20028;-54
2022/02/25 05:12:05;;;;;;;3.50;2.10;;;;;;;;;;5094149;28;20031;-54
2022/02/25 05:20:16;;;;;;;15.95;4.93;;;;;;;;;;5093530;28;20452;-55
2022/02/25 05:22:42;;;;;;;19.52;6.13;;;;;;;;;;5075690;28;20027;-52
2022/02/25 05:25:08;;;;;;;21.42;5.60;;;;;;;;;;5075603;28;20563;-51
2022/02/25 05:27:35;;;;;;;16.75;4.95;;;;;;;;;;5093800;28;20062;-50
2022/02/25 05:30:01;;;;;;;16.30;5.22;;;;;;;;;;5075253;28;20024;-53
2022/02/25 05:32:27;;;;;;;15.48;5.72;;;;;;;;;;5075546;28;20031;-58
2022/02/25 05:34:53;;;;;;;19.80;6.47;;;;;;;;;;5075646;28;20024;-52
2022/02/25 05:37:19;;;;;;;16.15;5.93;;;;;;;;;;5093711;28;20024;-54
2022/02/25 05:39:45;;;;;;;14.85;4.97;;;;;;;;;;5093158;28;20028;-54
2022/02/25 05:42:11;;;;;;;15.10;5.00;;;;;;;;;;5093797;28;20529;-55
2022/02/25 05:44:37;;;;;;;19.90;5.35;;;;;;;;;;5093292;28;20020;-54
2022/02/25 05:47:03;;;;;;;17.92;5.43;;;;;;;;;;5093538;28;20099;-55
2022/02/25 05:49:30;;;;;;;19.55;4.95;;;;;;;;;;5092935;28;20031;-54
2022/02/25 05:51:56;;;;;;;16.50;4.65;;;;;;;;;;5074856;28;20395;-57
2022/02/25 05:54:22;;;;;;;26.42;5.53;;;;;;;;;;5092355;28;20043;-53
2022/02/25 05:56:48;;;;;;;18.48;5.13;;;;;;;;;;5093206;28;20020;-57
2022/02/25 05:59:14;;;;;;;12.88;4.28;;;;;;;;;;5092525;28;20055;-54
2022/02/25 06:01:40;;;;;;;22.50;5.82;;;;;;;;;;5093052;28;20052;-51
2022/02/25 06:04:06;;;;;;;16.90;4.90;;;;;;;;;;5092883;28;20016;-54
2022/02/25 06:06:32;;;;;;;15.35;5.18;;;;;;;;;;5092947;28;20480;-50
2022/02/25 06:08:59;;;;;;;22.33;4.32;;;;;;;;;;5074591;28;20353;-49
2022/02/25 06:11:25;;;;;;;12.55;3.95;;;;;;;;;;5074736;28;20027;-49
2022/02/25 06:13:51;;;;;;;22.80;6.38;;;;;;;;;;5074744;28;20024;-57
2022/02/25 06:16:16;;;;;;;22.15;6.53;;;;;;;;;;5092408;28;20024;-50
2022/02/25 06:18:42;;;;;;;18.77;4.63;;;;;;;;;;5092030;28;20154;-53
2022/02/25 06:21:09;;;;;;;13.30;3.92;;;;;;;;;;5074189;28;20476;-50
2022/02/25 06:23:36;;;;;;;18.40;4.88;;;;;;;;;;5092517;28;20024;-53
2022/02/25 06:26:03;;;;;;;16.08;4.28;;;;;;;;;;5074111;28;20481;-53
2022/02/25 06:28:31;;;;;;;16.52;4.30;;;;;;;;;;5091987;28;20439;-52
2022/02/25 06:30:57;;;;;;;17.48;5.03;;;;;;;;;;5092190;28;20034;-52
2022/02/25 06:33:23;;;;;;;19.80;5.32;;;;;;;;;;5074182;28;20492;-55
2022/02/25 06:35:49;;;;;;;15.95;5.70;;;;;;;;;;5074380;28;20376;-53
2022/02/25 06:38:15;;;;;;;19.70;5.53;;;;;;;;;;5073768;28;20020;-52
2022/02/25 06:40:41;;;;;;;16.67;5.40;;;;;;;;;;5106980;22;20048;-52
2022/02/25 06:43:07;;;;;;;15.77;4.82;;;;;;;;;;5091979;28;20489;-56
2022/02/25 06:45:33;;;;;;;19.10;5.93;;;;;;;;;;5091915;28;20032;-55
2022/02/25 06:47:59;;;;;;;18.13;5.35;;;;;;;;;;5080809;28;20384;-54
2022/02/25 06:50:25;;;;;;;20.48;5.65;;;;;;;;;;5090439;28;20082;-54
2022/02/25 06:52:51;;;;;;;14.05;4.47;;;;;;;;;;5092228;28;20036;-53
2022/02/25 06:55:17;;;;;;;18.40;6.07;;;;;;;;;;5092033;28;20024;-52
2022/02/25 06:57:44;;;;;;;16.05;4.50;;;;;;;;;;5073875;28;20036;-54
2022/02/25 07:00:13;;;;;;;21.27;5.70;;;;;;;;;;5091400;28;20032;-52
2022/02/25 07:02:39;;;;;;;22.02;5.18;;;;;;;;;;5091495;28;20028;-49
2022/02/25 07:05:05;;;;;;;22.40;6.28;;;;;;;;;;5092165;28;20082;-51
2022/02/25 07:07:31;;;;;;;15.52;4.78;;;;;;;;;;5097384;28;20039;-55
2022/02/25 07:09:59;;;;;;;21.25;5.10;;;;;;;;;;5102471;28;20573;-54
2022/02/25 07:12:26;;;;;;;20.88;5.68;;;;;;;;;;5103511;28;20418;-55
2022/02/25 07:14:52;;;;;;;18.73;4.70;;;;;;;;;;5100392;28;20472;-57
2022/02/25 07:17:18;;;;;;;18.08;4.80;;;;;;;;;;5099738;28;20495;-56
2022/02/25 07:19:44;;;;;;;17.88;5.07;;;;;;;;;;5098603;28;20074;-54
2022/02/25 07:22:10;;;;;;;17.60;4.97;;;;;;;;;;5100744;28;20020;-54
2022/02/25 07:24:36;;;;;;;17.67;4.60;;;;;;;;;;5083591;28;20055;-51
2022/02/25 07:27:02;;;;;;;17.30;5.25;;;;;;;;;;5102455;28;20032;-56
2022/02/25 07:29:28;;;;;;;20.95;6.13;;;;;;;;;;5103811;28;20024;-57
2022/02/25 07:31:54;;;;;;;15.52;4.50;;;;;;;;;;5106692;28;20035;-57
2022/02/25 07:34:20;;;;;;;20.40;5.10;;;;;;;;;;5102447;28;20078;-52
2022/02/25 07:36:46;;;;;;;20.25;5.60;;;;;;;;;;5095071;28;20396;-53
2022/02/25 07:39:12;;;;;;;18.00;5.68;;;;;;;;;;5094806;28;20024;-53
2022/02/25 07:41:41;;;;;;;26.20;6.60;;;;;;;;;;5095494;28;20020;-51
2022/02/25 07:44:07;;;;;;;14.93;5.53;;;;;;;;;;5094969;28;20016;-50
2022/02/25 07:46:33;;;;;;;16.92;5.00;;;;;;;;;;5095389;28;20036;-54
2022/02/25 07:48:59;;;;;;;15.48;4.90;;;;;;;;;;5094217;28;20030;-53
2022/02/25 07:51:27;;;;;;;17.42;4.72;;;;;;;;;;5095254;28;20499;-52
2022/02/25 07:53:54;;;;;;;22.27;5.20;;;;;;;;;;5095069;28;20082;-54
2022/02/25 07:56:20;;;;;;;20.40;6.47;;;;;;;;;;5076938;28;20028;-55
2022/02/25 07:58:46;;;;;;;20.23;5.40;;;;;;;;;;5094521;28;20024;-56
2022/02/25 08:01:13;;;;;;;18.08;5.18;;;;;;;;;;5095114;28;20459;-56
2022/02/25 08:03:39;;;;;;;10.90;4.30;;;;;;;;;;5076125;28;20388;-52
2022/02/25 08:06:05;;;;;;;19.52;4.40;;;;;;;;;;5094985;28;20019;-55
2022/02/25 08:08:31;;;;;;;18.80;4.95;;;;;;;;;;5094712;28;20024;-54
2022/02/25 08:10:57;;;;;;;15.60;4.55;;;;;;;;;;5076011;28;20024;-54
2022/02/25 08:13:24;;;;;;;18.33;4.93;;;;;;;;;;5094852;28;20031;-52
2022/02/25 08:15:50;;;;;;;14.80;5.10;;;;;;;;;;5094792;28;20024;-54
2022/02/25 08:18:16;;;;;;;16.58;4.50;;;;;;;;;;5092800;28;20142;-52
2022/02/25 08:20:42;;;;;;;13.55;3.65;;;;;;;;;;5094242;28;20023;-53
2022/02/25 08:23:09;;;;;;;18.75;5.00;;;;;;;;;;5094672;28;20337;-52
2022/02/25 08:25:36;;;;;;;18.40;4.18;;;;;;;;;;5094347;28;20058;-51
2022/02/25 08:28:03;;;;;;;14.63;3.83;;;;;;;;;;5094491;28;20028;-53
2022/02/25 08:30:29;;;;;;;14.45;5.90;;;;;;;;;;5094121;28;20266;-52
2022/02/25 08:33:00;;;;;;;14.50;3.90;;;;;;;;;;5093924;28;20111;-56
2022/02/25 08:35:27;;;;;;;21.92;5.30;;;;;;;;;;5093934;28;20020;-57
2022/02/25 08:37:53;;;;;;;23.63;5.60;;;;;;;;;;5076400;28;20563;-52
2022/02/25 08:40:18;;;;;;;21.08;5.07;;;;;;;;;;5093507;28;20111;-53
2022/02/25 08:42:45;;;;;;;14.63;4.18;;;;;;;;;;5094519;28;20111;-54
2022/02/25 08:45:12;;;;;;;16.20;5.03;;;;;;;;;;5093700;28;20020;-57
2022/02/25 08:47:39;;;;;;;21.42;6.50;;;;;;;;;;5093585;28;20052;-58
2022/02/25 08:50:05;;;;;;;20.00;4.72;;;;;;;;;;5089510;28;20024;-59
2022/02/25 08:52:31;;;;;;;19.95;4.68;;;;;;;;;;5073888;28;20456;-54
2022/02/25 08:54:57;;;;;;;16.70;5.25;;;;;;;;;;5073193;28;20033;-56
2022/02/25 08:57:23;;;;;;;18.98;5.30;;;;;;;;;;5073816;28;20035;-58
2022/02/25 08:59:50;;;;;;;21.15;5.88;;;;;;;;;;5054824;28;20484;-60
2022/02/25 09:02:16;;;;;;;13.52;4.57;;;;;;;;;;5073310;28;20021;-56
2022/02/25 09:04:42;;;;;;;17.90;4.35;;;;;;;;;;5073087;28;20025;-58
2022/02/25 09:07:09;;;;;;;20.95;4.72;;;;;;;;;;5055614;28;20023;-57
2022/02/25 09:09:35;;;;;;;17.50;5.57;;;;;;;;;;5072695;28;20025;-57
2022/02/25 09:12:01;;;;;;;25.45;6.43;;;;;;;;;;5073395;28;20043;-58
2022/02/25 09:14:29;;;;;;;20.92;5.22;;;;;;;;;;5072984;28;20385;-58
2022/02/25 09:16:55;;;;;;;18.52;5.10;;;;;;;;;;5073118;28;20055;-58
2022/02/25 09:19:21;;;;;;;20.55;5.57;;;;;;;;;;5054880;28;20040;-57
2022/02/25 09:21:47;;;;;;;24.23;6.38;;;;;;;;;;5055109;28;20020;-55
2022/02/25 09:24:13;;;;;;;17.42;5.15;;;;;;;;;;5072918;28;20056;-54
2022/02/25 09:26:39;;;;;;;16.45;5.72;;;;;;;;;;5055357;28;20024;-56
2022/02/25 09:29:05;;;;;;;19.33;5.47;;;;;;;;;;5072164;28;20032;-56
2022/02/25 09:31:32;;;;;;;19.20;4.82;;;;;;;;;;5072326;28;20038;-53
2022/02/25 09:33:58;;;;;;;14.23;4.97;;;;;;;;;;5054675;28;20063;-57
2022/02/25 09:36:25;;;;;;;19.08;6.20;;;;;;;;;;5072599;28;20478;-58
2022/02/25 09:38:52;;;;;;;17.60;5.43;;;;;;;;;;5054078;28;20414;-55
2022/02/25 09:41:18;;;;;;;19.38;5.20;;;;;;;;;;5072495;28;20066;-56
2022/02/25 09:43:45;;;;;;;16.98;5.18;;;;;;;;;;5054456;28;20492;-57
2022/02/25 09:46:11;;;;;;;16.90;5.70;;;;;;;;;;5071755;28;20470;-56
2022/02/25 09:48:37;;;;;;;16.83;5.70;;;;;;;;;;5072236;28;20028;-57
2022/02/25 09:51:03;;;;;;;20.83;7.00;;;;;;;;;;5071922;28;20411;-58
2022/02/25 09:53:29;;;;;;;18.92;5.75;;;;;;;;;;5054505;28;20094;-60
2022/02/25 09:55:55;;;;;;;17.75;5.45;;;;;;;;;;5054135;28;20133;-56
2022/02/25 09:58:22;;;;;;;22.05;6.63;;;;;;;;;;5072288;28;20066;-56
2022/02/25 10:00:49;;;;;;;19.17;5.20;;;;;;;;;;5071292;28;20131;-55
2022/02/25 10:03:20;;;;;;;22.73;5.65;;;;;;;;;;5053400;28;20021;-57
2022/02/25 10:05:47;;;;;;;19.23;5.97;;;;;;;;;;4730528;28;9999887;-57
2022/02/25 10:08:20;;;;;;;21.88;5.35;;;;;;;;;;5087334;28;20024;-58
2022/02/25 10:10:50;;;;;;;20.08;7.13;;;;;;;;;;5050269;28;20031;-56
2022/02/25 10:13:18;;;;;;;20.25;5.28;;;;;;;;;;5077314;28;20081;-54
2022/02/25 10:15:45;;;;;;;22.63;5.90;;;;;;;;;;5087329;28;20103;-55
2022/02/25 10:18:12;;;;;;;18.00;4.65;;;;;;;;;;5088737;28;20028;-55
2022/02/25 10:20:39;;;;;;;17.67;4.53;;;;;;;;;;5088465;28;20385;-57
2022/02/25 10:23:27;;;;;;;19.75;5.40;;;;;;;;;;5069926;28;20028;-53
2022/02/25 10:25:54;;;;;;;13.75;4.80;;;;;;;;;;5057835;28;20028;-54
2022/02/25 10:28:30;;;;;;;16.23;5.85;;;;;;;;;;5090612;28;20078;-57
2022/02/25 10:31:14;;;;;;;20.75;5.18;;;;;;;;;;5090696;28;20032;-54
2022/02/25 10:33:42;;;;;;;25.35;5.63;;;;;;;;;;5092237;28;20027;-55
2022/02/25 10:36:08;;;;;;;24.25;6.10;;;;;;;;;;5092015;28;20538;-57
2022/02/25 10:38:37;;;;;;;20.63;6.15;;;;;;;;;;5091802;28;20028;-56
2022/02/25 10:41:03;;;;;;;14.32;4.57;;;;;;;;;;5091379;28;20024;-57
2022/02/25 10:43:30;;;;;;;20.50;5.93;;;;;;;;;;5092933;28;20130;-55
2022/02/25 10:45:57;;;;;;;19.08;5.72;;;;;;;;;;5092449;28;20020;-56
2022/02/25 10:48:33;;;;;;;14.80;4.07;;;;;;;;;;5074298;28;20020;-58
2022/02/25 10:50:59;;;;;;;18.33;5.15;;;;;;;;;;5091907;28;20817;-58
2022/02/25 10:53:33;;;;;;;16.67;5.75;;;;;;;;;;5092653;28;20111;-57
2022/02/25 10:56:14;;;;;;;17.27;4.65;;;;;;;;;;5092250;28;20391;-55
2022/02/25 10:58:43;;;;;;;19.67;5.47;;;;;;;;;;5092294;28;20442;-59
2022/02/25 11:01:11;;;;;;;19.98;5.20;;;;;;;;;;5091125;28;20023;-57
2022/02/25 11:03:37;;;;;;;16.95;5.45;;;;;;;;;;5091735;28;20158;-56
2022/02/25 11:06:07;;;;;;;19.35;5.38;;;;;;;;;;5091477;28;20020;-56
2022/02/25 11:08:36;;;;;;;23.88;5.93;;;;;;;;;;5068944;28;20027;-54
2022/02/25 11:11:03;;;;;;;15.60;5.50;;;;;;;;;;5053240;28;20060;-59
2022/02/25 11:13:29;;;;;;;17.80;6.25;;;;;;;;;;5071913;28;20032;-54
2022/02/25 11:15:55;;;;;;;13.00;4.95;;;;;;;;;;5052614;28;20111;-56
2022/02/25 11:18:22;;;;;;;20.70;7.25;;;;;;;;;;5053659;28;20052;-53
2022/02/25 11:20:49;;;;;;;15.80;7.20;;;;;;;;;;5053429;28;20560;-55
2022/02/25 11:23:15;;;;;;;22.70;8.07;;;;;;;;;;5072097;28;20021;-59
2022/02/25 11:25:42;;;;;;;24.20;8.80;;;;;;;;;;5071672;28;20024;-56
2022/02/25 11:28:09;;;;;;;23.67;7.78;;;;;;;;;;5071328;28;20049;-54
2022/02/25 11:30:48;;;;;;;17.45;8.90;;;;;;;;;;5052521;28;20028;-56
2022/02/25 11:33:19;;;;;;;18.27;7.43;;;;;;;;;;5071586;28;20048;-56
2022/02/25 11:35:53;;;;;;;21.88;8.40;;;;;;;;;;5071271;28;20029;-54
2022/02/25 11:38:29;;;;;;;20.45;6.95;;;;;;;;;;5071317;28;20043;-56
2022/02/25 11:41:00;;;;;;;22.13;6.70;;;;;;;;;;5070953;28;20235;-57
2022/02/25 11:43:42;;;;;;;17.98;8.48;;;;;;;;;;5053445;28;20079;-54
2022/02/25 11:46:24;;;;;;;24.30;8.77;;;;;;;;;;5070914;28;20013;-58
2022/02/25 11:48:58;;;;;;;23.10;9.30;;;;;;;;;;5071181;28;20056;-56
2022/02/25 11:51:27;;;;;;;24.08;9.80;;;;;;;;;;5087343;28;20503;-59
2022/02/25 11:54:12;;;;;;;23.05;8.18;;;;;;;;;;5076704;28;20032;-54
2022/02/25 11:56:38;;;;;;;20.50;7.07;;;;;;;;;;5095468;28;20028;-58
2022/02/25 11:59:04;;;;;;;18.23;6.57;;;;;;;;;;5094615;28;20436;-58
2022/02/25 12:01:30;;;;;;;23.40;7.32;;;;;;;;;;4715000;28;9999874;-57
2022/02/25 12:04:05;;;;;;;19.85;6.88;;;;;;;;;;5090012;28;20190;-57
2022/02/25 12:06:51;;;;;;;19.02;7.35;;;;;;;;;;5073658;28;20041;-55
2022/02/25 12:09:37;;;;;;;19.10;8.93;;;;;;;;;;5067707;28;20079;-56
2022/02/25 12:12:24;;;;;;;22.33;10.85;;;;;;;;;;5071627;28;20074;-55
2022/02/25 12:14:59;;;;;;;21.25;11.80;;;;;;;;;;5070283;28;20062;-56
2022/02/25 12:17:43;;;;;;;20.38;12.15;;;;;;;;;;5055121;28;20318;-57
2022/02/25 12:20:23;;;;;;;27.02;13.02;;;;;;;;;;5090700;28;20037;-58
2022/02/25 12:22:49;;;;;;;21.20;9.30;;;;;;;;;;5091661;28;20031;-57
2022/02/25 12:25:35;;;;;;;21.77;9.48;;;;;;;;;;5090935;28;20107;-57
2022/02/25 12:28:22;;;;;;;22.00;8.85;;;;;;;;;;5090428;28;20134;-58
2022/02/25 12:30:54;;;;;;;21.85;7.78;;;;;;;;;;5090783;28;20016;-61
2022/02/25 12:33:30;;;;;;;20.45;7.50;;;;;;;;;;5091409;28;20053;-61
2022/02/25 12:35:58;;;;;;;16.70;7.65;;;;;;;;;;5076450;28;20031;-56
2022/02/25 12:38:25;;;;;;;15.77;7.35;;;;;;;;;;5070235;28;20040;-60
2022/02/25 12:40:55;;;;;;;17.95;8.35;;;;;;;;;;5089138;23;20060;-52
2022/02/25 12:43:21;;;;;;;18.15;7.07;;;;;;;;;;5068405;28;20476;-53
2022/02/25 12:45:48;;;;;;;25.05;8.02;;;;;;;;;;5070939;28;20077;-54
2022/02/25 12:48:14;;;;;;;19.05;5.32;;;;;;;;;;5069419;28;20028;-56
2022/02/25 12:50:44;;;;;;;21.23;5.82;;;;;;;;;;5062899;28;20036;-53
2022/02/25 12:53:10;;;;;;;14.18;4.90;;;;;;;;;;5051322;28;20033;-51
2022/02/25 12:55:50;;;;;;;10.73;3.90;;;;;;;;;;5050127;28;20686;-57
2022/02/25 12:58:16;;;;;;;14.00;4.10;;;;;;;;;;5051347;28;20029;-58
2022/02/25 13:01:06;;;;;;;13.13;4.43;;;;;;;;;;5050828;28;20120;-58
2022/02/25 13:03:32;;;;;;;14.02;4.35;;;;;;;;;;5050702;28;20037;-49
2022/02/25 13:05:58;;;;;;;14.90;5.55;;;;;;;;;;5050984;28;20114;-53
2022/02/25 13:08:29;;;;;;;11.65;4.10;;;;;;;;;;5063090;28;20064;-55
2022/02/25 13:10:57;;;;;;;15.70;4.93;;;;;;;;;;5049621;28;20040;-56
2022/02/25 13:13:23;;;;;;;13.57;4.10;;;;;;;;;;5051170;28;20025;-56
2022/02/25 13:16:00;;;;;;;20.58;4.20;;;;;;;;;;5050487;28;20326;-54
2022/02/25 13:18:26;;;;;;;15.63;4.05;;;;;;;;;;5050453;28;20029;-56
2022/02/25 13:21:03;;;;;;;17.33;5.00;;;;;;;;;;5051117;28;20021;-52
2022/02/25 13:23:32;;;;;;;13.48;4.30;;;;;;;;;;5053167;28;20025;-56
2022/02/25 13:26:00;;;;;;;16.52;5.18;;;;;;;;;;5051988;28;20025;-55
2022/02/25 13:28:27;;;;;;;13.50;4.70;;;;;;;;;;5053121;28;20144;-55
2022/02/25 13:30:53;;;;;;;15.98;5.10;;;;;;;;;;5055536;28;20025;-54
2022/02/25 13:33:20;;;;;;;23.30;5.90;;;;;;;;;;5052974;28;20079;-52
2022/02/25 13:35:49;;;;;;;17.48;5.07;;;;;;;;;;5051675;28;20032;-51
2022/02/25 13:38:21;;;;;;;18.17;4.32;;;;;;;;;;5052271;28;20334;-53
2022/02/25 13:40:51;;;;;;;15.95;4.85;;;;;;;;;;5052978;28;20036;-52
2022/02/25 13:43:17;;;;;;;12.50;4.65;;;;;;;;;;5051995;28;20021;-51
2022/02/25 13:45:43;;;;;;;20.67;4.68;;;;;;;;;;5053014;28;20036;-54
2022/02/25 13:53:53;;;;;;;13.13;5.10;;;;;;;;;;5053589;28;20106;-49
2022/02/25 13:56:18;;;;;;;16.73;4.63;;;;;;;;;;5053141;28;20025;-50
2022/02/25 13:58:56;;;;;;;15.70;5.10;;;;;;;;;;5053179;28;20116;-52
2022/02/25 14:01:22;;;;;;;13.30;4.70;;;;;;;;;;5052906;28;20053;-49
2022/02/25 14:03:48;;;;;;;16.63;5.05;;;;;;;;;;5052922;28;20033;-55
2022/02/25 14:06:27;;;;;;;16.50;5.90;;;;;;;;;;4713309;28;9999767;-49
2022/02/25 14:08:54;;;;;;;15.23;4.93;;;;;;;;;;5062407;28;20324;-51
2022/02/25 14:11:39;;;;;;;13.98;4.82;;;;;;;;;;5053355;28;20028;-54
2022/02/25 14:14:06;;;;;;;14.82;5.00;;;;;;;;;;5056288;28;20082;-48
2022/02/25 14:16:32;;;;;;;14.90;4.60;;;;;;;;;;5058470;28;20052;-51
2022/02/25 14:19:17;;;;;;;29.95;15.45;;;;;;;;;;5068443;28;20042;-52
2022/02/25 14:21:45;;;;;;;17.70;6.70;;;;;;;;;;5068129;28;20446;-52
2022/02/25 14:24:24;;;;;;;14.45;5.60;;;;;;;;;;5068545;28;20020;-53
2022/02/25 14:27:04;;;;;;;15.32;6.47;;;;;;;;;;5069712;28;20112;-51
2022/02/25 14:29:30;;;;;;;17.17;6.80;;;;;;;;;;5068257;28;20498;-50
2022/02/25 14:32:09;;;;;;;15.07;6.60;;;;;;;;;;5069629;28;20578;-53
2022/02/25 14:34:43;;;;;;;14.55;6.22;;;;;;;;;;5069799;28;20021;-54
2022/02/25 14:37:20;;;;;;;15.95;6.70;;;;;;;;;;5071095;28;20040;-58
2022/02/25 14:39:46;;;;;;;21.15;7.00;;;;;;;;;;5068953;28;20149;-53
2022/02/25 14:42:12;;;;;;;17.60;6.88;;;;;;;;;;5070879;28;20510;-56
2022/02/25 14:44:38;;;;;;;16.05;7.00;;;;;;;;;;5070930;28;20047;-53
2022/02/25 14:47:04;;;;;;;17.35;7.03;;;;;;;;;;5071679;28;20020;-57
2022/02/25 14:49:30;;;;;;;14.68;6.95;;;;;;;;;;5071125;28;20025;-56